sensor_id;sensor_type;location;lat;lon;timestamp;pressure;altitude;pressure_sealevel;temperature;humidity
43707;BME280;61348;53.392;-6.248;2022-08-19T00:00:07;100460.63;;;15.00;62.95
43707;BME280;61348;53.392;-6.248;2022-08-19T00:02:35;100463.03;;;14.98;62.94
43707;BME280;61348;53.392;-6.248;2022-08-19T00:05:03;100464.56;;;14.96;63.07
43707;BME280;61348;53.392;-6.248;2022-08-19T00:07:30;100465.34;;;14.93;63.31
43707;BME280;61348;53.392;-6.248;2022-08-19T00:09:57;100466.03;;;14.86;63.44
43707;BME280;61348;53.392;-6.248;2022-08-19T00:12:24;100458.84;;;14.85;63.39
43707;BME280;61348;53.392;-6.248;2022-08-19T00:14:50;100465.22;;;14.82;63.59
43707;BME280;61348;53.392;-6.248;2022-08-19T00:17:20;100470.78;;;14.82;63.60
43707;BME280;61348;53.392;-6.248;2022-08-19T00:19:46;100477.16;;;14.83;63.74
43707;BME280;61348;53.392;-6.248;2022-08-19T00:22:13;100476.72;;;14.77;63.81
43707;BME280;61348;53.392;-6.248;2022-08-19T00:24:41;100474.28;;;14.76;64.09
43707;BME280;61348;53.392;-6.248;2022-08-19T00:27:16;100479.03;;;14.75;63.97
43707;BME280;61348;53.392;-6.248;2022-08-19T00:29:52;100482.22;;;14.74;64.17
43707;BME280;61348;53.392;-6.248;2022-08-19T00:32:19;100488.16;;;14.72;64.44
43707;BME280;61348;53.392;-6.248;2022-08-19T00:34:47;100486.56;;;14.71;64.37
43707;BME280;61348;53.392;-6.248;2022-08-19T00:37:14;100485.28;;;14.65;64.80
43707;BME280;61348;53.392;-6.248;2022-08-19T00:39:40;100486.47;;;14.64;64.93
43707;BME280;61348;53.392;-6.248;2022-08-19T00:42:07;100488.09;;;14.65;64.94
43707;BME280;61348;53.392;-6.248;2022-08-19T00:44:34;100484.88;;;14.63;65.00
43707;BME280;61348;53.392;-6.248;2022-08-19T00:47:02;100477.28;;;14.60;65.19
43707;BME280;61348;53.392;-6.248;2022-08-19T00:49:57;100477.22;;;14.56;65.54
43707;BME280;61348;53.392;-6.248;2022-08-19T00:52:32;100480.41;;;14.55;65.79
43707;BME280;61348;53.392;-6.248;2022-08-19T00:55:01;100486.31;;;14.50;65.84
43707;BME280;61348;53.392;-6.248;2022-08-19T00:57:38;100475.91;;;14.47;66.12
43707;BME280;61348;53.392;-6.248;2022-08-19T01:00:09;100484.59;;;14.42;66.37
43707;BME280;61348;53.392;-6.248;2022-08-19T01:02:39;100480.19;;;14.41;66.47
43707;BME280;61348;53.392;-6.248;2022-08-19T01:05:11;100482.19;;;14.40;66.73
43707;BME280;61348;53.392;-6.248;2022-08-19T01:07:39;100474.53;;;14.34;66.89
43707;BME280;61348;53.392;-6.248;2022-08-19T01:10:15;100470.13;;;14.33;67.00
43707;BME280;61348;53.392;-6.248;2022-08-19T01:12:43;100474.13;;;14.32;66.93
43707;BME280;61348;53.392;-6.248;2022-08-19T01:15:12;100479.22;;;14.30;67.18
43707;BME280;61348;53.392;-6.248;2022-08-19T01:17:41;100473.22;;;14.28;67.21
43707;BME280;61348;53.392;-6.248;2022-08-19T01:20:16;100482.31;;;14.25;67.53
43707;BME280;61348;53.392;-6.248;2022-08-19T01:22:49;100479.53;;;14.25;67.52
43707;BME280;61348;53.392;-6.248;2022-08-19T01:25:19;100483.53;;;14.24;67.66
43707;BME280;61348;53.392;-6.248;2022-08-19T01:27:51;100476.41;;;14.26;67.76
43707;BME280;61348;53.392;-6.248;2022-08-19T01:30:23;100474.03;;;14.28;68.00
43707;BME280;61348;53.392;-6.248;2022-08-19T01:32:51;100489.19;;;14.31;67.88
43707;BME280;61348;53.392;-6.248;2022-08-19T01:35:21;100482.91;;;14.34;68.02
43707;BME280;61348;53.392;-6.248;2022-08-19T01:37:54;100493.72;;;14.39;68.14
43707;BME280;61348;53.392;-6.248;2022-08-19T01:40:23;100473.81;;;14.40;68.21
43707;BME280;61348;53.392;-6.248;2022-08-19T01:42:52;100482.97;;;14.37;68.25
43707;BME280;61348;53.392;-6.248;2022-08-19T01:45:22;100479.31;;;14.33;68.33
43707;BME280;61348;53.392;-6.248;2022-08-19T01:47:49;100486.84;;;14.33;68.42
43707;BME280;61348;53.392;-6.248;2022-08-19T01:50:27;100474.84;;;14.29;68.50
43707;BME280;61348;53.392;-6.248;2022-08-19T01:52:54;100491.56;;;14.29;68.58
43707;BME280;61348;53.392;-6.248;2022-08-19T01:55:32;100496.31;;;14.28;68.64
43707;BME280;61348;53.392;-6.248;2022-08-19T01:58:02;100486.78;;;14.29;68.61
43707;BME280;61348;53.392;-6.248;2022-08-19T02:00:31;100488.75;;;14.29;68.60
43707;BME280;61348;53.392;-6.248;2022-08-19T02:02:58;100492.34;;;14.29;69.00
43707;BME280;61348;53.392;-6.248;2022-08-19T02:05:27;100492.41;;;14.33;69.09
43707;BME280;61348;53.392;-6.248;2022-08-19T02:07:56;100487.72;;;14.37;68.71
43707;BME280;61348;53.392;-6.248;2022-08-19T02:10:23;100482.97;;;14.37;68.99
43707;BME280;61348;53.392;-6.248;2022-08-19T02:12:50;100490.09;;;14.35;69.30
43707;BME280;61348;53.392;-6.248;2022-08-19T02:15:19;100489.31;;;14.38;69.08
43707;BME280;61348;53.392;-6.248;2022-08-19T02:17:47;100504.44;;;14.37;69.19
43707;BME280;61348;53.392;-6.248;2022-08-19T02:20:14;100484.50;;;14.35;69.36
43707;BME280;61348;53.392;-6.248;2022-08-19T02:22:42;100490.09;;;14.35;69.30
43707;BME280;61348;53.392;-6.248;2022-08-19T02:25:11;100493.22;;;14.33;69.26
43707;BME280;61348;53.392;-6.248;2022-08-19T02:27:39;100492.34;;;14.29;69.34
43707;BME280;61348;53.392;-6.248;2022-08-19T02:30:08;100490.69;;;14.25;69.30
43707;BME280;61348;53.392;-6.248;2022-08-19T02:32:39;100485.03;;;14.18;69.25
43707;BME280;61348;53.392;-6.248;2022-08-19T02:35:11;100488.13;;;14.13;69.49
43707;BME280;61348;53.392;-6.248;2022-08-19T02:37:40;100488.03;;;14.06;69.80
43707;BME280;61348;53.392;-6.248;2022-08-19T02:40:26;100483.16;;;13.99;69.92
43707;BME280;61348;53.392;-6.248;2022-08-19T02:42:52;100485.50;;;13.97;69.92
43707;BME280;61348;53.392;-6.248;2022-08-19T02:45:20;100476.66;;;13.91;70.03
43707;BME280;61348;53.392;-6.248;2022-08-19T02:47:46;100468.66;;;13.86;70.35
43707;BME280;61348;53.392;-6.248;2022-08-19T02:50:13;100471.75;;;13.81;70.65
43707;BME280;61348;53.392;-6.248;2022-08-19T02:52:41;100477.63;;;13.76;70.53
43707;BME280;61348;53.392;-6.248;2022-08-19T02:55:08;100468.06;;;13.74;70.83
43707;BME280;61348;53.392;-6.248;2022-08-19T02:57:35;100472.00;;;13.73;71.10
43707;BME280;61348;53.392;-6.248;2022-08-19T03:00:06;100469.16;;;13.69;71.30
43707;BME280;61348;53.392;-6.248;2022-08-19T03:02:33;100471.50;;;13.67;71.23
43707;BME280;61348;53.392;-6.248;2022-08-19T03:05:03;100474.28;;;13.67;71.33
43707;BME280;61348;53.392;-6.248;2022-08-19T03:07:30;100472.69;;;13.66;71.45
43707;BME280;61348;53.392;-6.248;2022-08-19T03:09:57;100466.69;;;13.64;71.42
43707;BME280;61348;53.392;-6.248;2022-08-19T03:12:24;100473.88;;;13.65;71.57
43707;BME280;61348;53.392;-6.248;2022-08-19T03:14:50;100472.25;;;13.64;71.75
43707;BME280;61348;53.392;-6.248;2022-08-19T03:17:19;100455.56;;;13.64;71.65
43707;BME280;61348;53.392;-6.248;2022-08-19T03:19:46;100479.38;;;13.62;71.83
43707;BME280;61348;53.392;-6.248;2022-08-19T03:22:12;100468.97;;;13.59;71.77
43707;BME280;61348;53.392;-6.248;2022-08-19T03:24:39;100478.06;;;13.56;72.07
43707;BME280;61348;53.392;-6.248;2022-08-19T03:27:06;100476.03;;;13.53;72.22
43707;BME280;61348;53.392;-6.248;2022-08-19T03:29:37;100476.41;;;13.51;72.35
43707;BME280;61348;53.392;-6.248;2022-08-19T03:32:10;100480.00;;;13.52;72.13
43707;BME280;61348;53.392;-6.248;2022-08-19T03:34:57;100478.75;;;13.49;72.19
43707;BME280;61348;53.392;-6.248;2022-08-19T03:37:23;100483.09;;;13.47;72.34
43707;BME280;61348;53.392;-6.248;2022-08-19T03:39:51;100481.84;;;13.44;72.34
43707;BME280;61348;53.392;-6.248;2022-08-19T03:42:18;100472.69;;;13.43;72.38
43707;BME280;61348;53.392;-6.248;2022-08-19T03:44:58;100470.31;;;13.42;72.59
43707;BME280;61348;53.392;-6.248;2022-08-19T03:47:25;100468.69;;;13.41;72.70
43707;BME280;61348;53.392;-6.248;2022-08-19T03:49:52;100467.06;;;13.40;72.91
43707;BME280;61348;53.392;-6.248;2022-08-19T03:52:19;100457.50;;;13.37;72.99
43707;BME280;61348;53.392;-6.248;2022-08-19T03:54:46;100447.56;;;13.36;73.05
43707;BME280;61348;53.392;-6.248;2022-08-19T03:57:12;100468.13;;;13.32;73.03
43707;BME280;61348;53.392;-6.248;2022-08-19T03:59:39;100474.13;;;13.34;73.20
43707;BME280;61348;53.392;-6.248;2022-08-19T04:02:09;100467.75;;;13.33;73.31
43707;BME280;61348;53.392;-6.248;2022-08-19T04:04:39;100463.44;;;13.36;73.38
43707;BME280;61348;53.392;-6.248;2022-08-19T04:07:06;100463.84;;;13.38;73.38
43707;BME280;61348;53.392;-6.248;2022-08-19T04:09:35;100466.63;;;13.38;73.65
43707;BME280;61348;53.392;-6.248;2022-08-19T04:12:04;100476.09;;;13.33;73.67
43707;BME280;61348;53.392;-6.248;2022-08-19T04:14:33;100476.84;;;13.30;74.12
43707;BME280;61348;53.392;-6.248;2022-08-19T04:17:02;100472.44;;;13.29;74.13
43707;BME280;61348;53.392;-6.248;2022-08-19T04:19:33;100479.53;;;13.27;74.22
43707;BME280;61348;53.392;-6.248;2022-08-19T04:22:01;100475.16;;;13.26;74.32
43707;BME280;61348;53.392;-6.248;2022-08-19T04:24:28;100480.28;;;13.24;74.31
43707;BME280;61348;53.392;-6.248;2022-08-19T04:26:55;100477.50;;;13.24;74.39
43707;BME280;61348;53.392;-6.248;2022-08-19T04:29:24;100478.69;;;13.23;74.55
43707;BME280;61348;53.392;-6.248;2022-08-19T04:31:53;100477.88;;;13.22;74.67
43707;BME280;61348;53.392;-6.248;2022-08-19T04:34:23;100484.59;;;13.21;74.79
43707;BME280;61348;53.392;-6.248;2022-08-19T04:36:51;100482.19;;;13.20;74.68
43707;BME280;61348;53.392;-6.248;2022-08-19T04:39:22;100485.78;;;13.20;74.70
43707;BME280;61348;53.392;-6.248;2022-08-19T04:41:49;100487.38;;;13.21;74.54
43707;BME280;61348;53.392;-6.248;2022-08-19T04:44:35;100476.66;;;13.20;74.53
43707;BME280;61348;53.392;-6.248;2022-08-19T04:47:12;100474.59;;;13.17;74.57
43707;BME280;61348;53.392;-6.248;2022-08-19T04:49:38;100477.75;;;13.15;74.78
43707;BME280;61348;53.392;-6.248;2022-08-19T04:52:05;100480.06;;;13.13;75.04
43707;BME280;61348;53.392;-6.248;2022-08-19T04:54:32;100486.44;;;13.14;74.98
43707;BME280;61348;53.392;-6.248;2022-08-19T04:57:03;100486.03;;;13.12;74.84
43707;BME280;61348;53.392;-6.248;2022-08-19T04:59:34;100489.53;;;13.09;75.05
43707;BME280;61348;53.392;-6.248;2022-08-19T05:02:03;100488.72;;;13.08;75.16
43707;BME280;61348;53.392;-6.248;2022-08-19T05:04:30;100491.88;;;13.07;75.21
43707;BME280;61348;53.392;-6.248;2022-08-19T05:06:59;100498.25;;;13.07;75.41
43707;BME280;61348;53.392;-6.248;2022-08-19T05:09:29;100495.47;;;13.07;75.22
43707;BME280;61348;53.392;-6.248;2022-08-19T05:12:17;100508.56;;;13.07;75.36
43707;BME280;61348;53.392;-6.248;2022-08-19T05:14:45;100493.81;;;13.06;75.13
43707;BME280;61348;53.392;-6.248;2022-08-19T05:17:14;100501.84;;;13.08;75.17
43707;BME280;61348;53.392;-6.248;2022-08-19T05:20:02;100497.75;;;13.05;75.31
43707;BME280;61348;53.392;-6.248;2022-08-19T05:22:48;100500.53;;;13.05;75.45
43707;BME280;61348;53.392;-6.248;2022-08-19T05:25:18;100502.16;;;13.06;75.26
43707;BME280;61348;53.392;-6.248;2022-08-19T05:27:45;100504.63;;;13.08;75.19
43707;BME280;61348;53.392;-6.248;2022-08-19T05:30:13;100503.00;;;13.07;75.63
43707;BME280;61348;53.392;-6.248;2022-08-19T05:32:42;100508.63;;;13.10;75.23
43707;BME280;61348;53.392;-6.248;2022-08-19T05:35:08;100514.19;;;13.10;75.29
43707;BME280;61348;53.392;-6.248;2022-08-19T05:37:36;100516.97;;;13.10;75.11
43707;BME280;61348;53.392;-6.248;2022-08-19T05:40:04;100509.41;;;13.11;75.13
43707;BME280;61348;53.392;-6.248;2022-08-19T05:42:31;100512.19;;;13.11;75.06
43707;BME280;61348;53.392;-6.248;2022-08-19T05:44:58;100515.78;;;13.11;75.31
43707;BME280;61348;53.392;-6.248;2022-08-19T05:47:25;100514.97;;;13.11;75.38
43707;BME280;61348;53.392;-6.248;2022-08-19T05:49:52;100536.47;;;13.14;75.16
43707;BME280;61348;53.392;-6.248;2022-08-19T05:52:19;100534.91;;;13.13;75.21
43707;BME280;61348;53.392;-6.248;2022-08-19T05:54:52;100538.09;;;13.15;75.28
43707;BME280;61348;53.392;-6.248;2022-08-19T05:57:22;100535.31;;;13.15;75.29
43707;BME280;61348;53.392;-6.248;2022-08-19T05:59:50;100546.88;;;13.17;75.57
43707;BME280;61348;53.392;-6.248;2022-08-19T06:02:27;100546.13;;;13.20;75.63
43707;BME280;61348;53.392;-6.248;2022-08-19T06:04:54;100544.59;;;13.22;75.50
43707;BME280;61348;53.392;-6.248;2022-08-19T06:07:21;100548.63;;;13.25;75.30
43707;BME280;61348;53.392;-6.248;2022-08-19T06:09:48;100563.69;;;13.24;75.64
43707;BME280;61348;53.392;-6.248;2022-08-19T06:12:30;100560.91;;;13.24;75.43
43707;BME280;61348;53.392;-6.248;2022-08-19T06:15:10;100560.16;;;13.27;75.68
43707;BME280;61348;53.392;-6.248;2022-08-19T06:17:38;100570.94;;;13.28;75.63
43707;BME280;61348;53.392;-6.248;2022-08-19T06:20:07;100566.97;;;13.29;75.53
43707;BME280;61348;53.392;-6.248;2022-08-19T06:22:39;100567.78;;;13.30;75.45
43707;BME280;61348;53.392;-6.248;2022-08-19T06:25:07;100569.81;;;13.33;75.58
43707;BME280;61348;53.392;-6.248;2022-08-19T06:27:36;100578.16;;;13.33;75.75
43707;BME280;61348;53.392;-6.248;2022-08-19T06:30:23;100584.59;;;13.37;75.76
43707;BME280;61348;53.392;-6.248;2022-08-19T06:32:50;100592.19;;;13.40;75.76
43707;BME280;61348;53.392;-6.248;2022-08-19T06:35:18;100591.91;;;13.45;75.57
43707;BME280;61348;53.392;-6.248;2022-08-19T06:37:45;100595.56;;;13.49;75.55
43707;BME280;61348;53.392;-6.248;2022-08-19T06:40:12;100594.41;;;13.50;75.47
43707;BME280;61348;53.392;-6.248;2022-08-19T06:42:39;100584.44;;;13.49;75.52
43707;BME280;61348;53.392;-6.248;2022-08-19T06:45:21;100580.50;;;13.50;75.48
43707;BME280;61348;53.392;-6.248;2022-08-19T06:48:00;100593.66;;;13.53;75.62
43707;BME280;61348;53.392;-6.248;2022-08-19T06:50:29;100597.75;;;13.59;75.85
43707;BME280;61348;53.392;-6.248;2022-08-19T06:52:55;100605.03;;;13.67;75.42
43707;BME280;61348;53.392;-6.248;2022-08-19T06:55:29;100604.38;;;13.74;75.58
43707;BME280;61348;53.392;-6.248;2022-08-19T06:58:02;100595.34;;;13.80;75.63
43707;BME280;61348;53.392;-6.248;2022-08-19T07:00:30;100591.81;;;13.83;75.20
43707;BME280;61348;53.392;-6.248;2022-08-19T07:03:02;100596.69;;;13.90;75.27
43707;BME280;61348;53.392;-6.248;2022-08-19T07:05:43;100590.47;;;13.96;75.05
43707;BME280;61348;53.392;-6.248;2022-08-19T07:08:12;100594.56;;;14.02;75.14
43707;BME280;61348;53.392;-6.248;2022-08-19T07:10:43;100596.63;;;14.09;74.78
43707;BME280;61348;53.392;-6.248;2022-08-19T07:13:10;100600.34;;;14.17;74.80
43707;BME280;61348;53.392;-6.248;2022-08-19T07:15:37;100602.06;;;14.25;74.64
43707;BME280;61348;53.392;-6.248;2022-08-19T07:18:05;100611.84;;;14.38;74.47
43707;BME280;61348;53.392;-6.248;2022-08-19T07:20:32;100615.41;;;14.61;74.19
43707;BME280;61348;53.392;-6.248;2022-08-19T07:23:00;100619.59;;;14.74;73.75
43707;BME280;61348;53.392;-6.248;2022-08-19T07:25:32;100608.47;;;14.78;73.44
43707;BME280;61348;53.392;-6.248;2022-08-19T07:27:59;100617.31;;;14.83;73.55
43707;BME280;61348;53.392;-6.248;2022-08-19T07:30:27;100621.38;;;14.89;73.47
43707;BME280;61348;53.392;-6.248;2022-08-19T07:32:54;100613.97;;;15.00;73.47
43707;BME280;61348;53.392;-6.248;2022-08-19T07:35:23;100607.34;;;15.12;73.29
43707;BME280;61348;53.392;-6.248;2022-08-19T07:37:51;100610.59;;;15.17;73.08
43707;BME280;61348;53.392;-6.248;2022-08-19T07:40:19;100607.47;;;15.22;72.77
43707;BME280;61348;53.392;-6.248;2022-08-19T07:42:46;100602.41;;;15.32;72.58
43707;BME280;61348;53.392;-6.248;2022-08-19T07:45:13;100613.22;;;15.37;72.45
43707;BME280;61348;53.392;-6.248;2022-08-19T07:47:42;100611.63;;;15.36;72.16
43707;BME280;61348;53.392;-6.248;2022-08-19T07:50:17;100605.31;;;15.42;72.07
43707;BME280;61348;53.392;-6.248;2022-08-19T07:52:47;100617.41;;;15.50;71.85
43707;BME280;61348;53.392;-6.248;2022-08-19T07:55:18;100611.88;;;15.57;71.58
43707;BME280;61348;53.392;-6.248;2022-08-19T07:58:05;100620.66;;;15.55;71.39
43707;BME280;61348;53.392;-6.248;2022-08-19T08:00:32;100625.06;;;15.56;71.40
43707;BME280;61348;53.392;-6.248;2022-08-19T08:03:01;100637.47;;;15.62;71.33
43707;BME280;61348;53.392;-6.248;2022-08-19T08:05:28;100638.38;;;15.70;71.33
43707;BME280;61348;53.392;-6.248;2022-08-19T08:08:13;100638.44;;;15.77;71.16
43707;BME280;61348;53.392;-6.248;2022-08-19T08:11:15;100633.78;;;15.88;71.47
43707;BME280;61348;53.392;-6.248;2022-08-19T08:13:46;100639.53;;;16.06;71.90
43707;BME280;61348;53.392;-6.248;2022-08-19T08:16:33;100641.69;;;16.26;71.66
43707;BME280;61348;53.392;-6.248;2022-08-19T08:19:00;100635.91;;;16.49;71.54
43707;BME280;61348;53.392;-6.248;2022-08-19T08:21:27;100641.31;;;16.79;71.42
43707;BME280;61348;53.392;-6.248;2022-08-19T08:23:54;100635.91;;;17.07;70.63
43707;BME280;61348;53.392;-6.248;2022-08-19T08:26:22;100637.22;;;17.31;69.28
43707;BME280;61348;53.392;-6.248;2022-08-19T08:28:49;100628.50;;;17.46;68.26
43707;BME280;61348;53.392;-6.248;2022-08-19T08:31:16;100634.97;;;17.64;67.44
43707;BME280;61348;53.392;-6.248;2022-08-19T08:33:46;100647.88;;;18.08;66.98
43707;BME280;61348;53.392;-6.248;2022-08-19T08:36:13;100634.28;;;18.38;65.30
43707;BME280;61348;53.392;-6.248;2022-08-19T08:38:42;100644.59;;;19.15;64.76
43707;BME280;61348;53.392;-6.248;2022-08-19T08:43:50;100648.28;;;19.95;60.14
43707;BME280;61348;53.392;-6.248;2022-08-19T08:46:33;100638.66;;;19.89;59.10
43707;BME280;61348;53.392;-6.248;2022-08-19T08:51:40;100653.75;;;20.13;57.57
43707;BME280;61348;53.392;-6.248;2022-08-19T08:54:15;100641.75;;;20.09;56.96
43707;BME280;61348;53.392;-6.248;2022-08-19T08:56:45;100642.53;;;20.13;56.51
43707;BME280;61348;53.392;-6.248;2022-08-19T08:59:39;100648.28;;;19.88;56.10
43707;BME280;61348;53.392;-6.248;2022-08-19T09:02:07;100628.88;;;20.12;55.67
43707;BME280;61348;53.392;-6.248;2022-08-19T09:04:35;100628.22;;;19.93;54.63
43707;BME280;61348;53.392;-6.248;2022-08-19T09:10:29;100620.44;;;21.00;54.51
43707;BME280;61348;53.392;-6.248;2022-08-19T09:13:48;100619.69;;;21.94;52.18
43707;BME280;61348;53.392;-6.248;2022-08-19T09:16:05;100640.59;;;22.47;50.64
43707;BME280;61348;53.392;-6.248;2022-08-19T09:18:48;100638.81;;;23.02;49.48
43707;BME280;61348;53.392;-6.248;2022-08-19T09:21:15;100653.56;;;23.53;48.76
43707;BME280;61348;53.392;-6.248;2022-08-19T09:23:43;100654.09;;;23.84;47.25
43707;BME280;61348;53.392;-6.248;2022-08-19T09:26:12;100656.78;;;24.27;46.42
43707;BME280;61348;53.392;-6.248;2022-08-19T09:28:43;100642.91;;;24.48;45.84
43707;BME280;61348;53.392;-6.248;2022-08-19T09:31:17;100652.31;;;24.09;45.47
43707;BME280;61348;53.392;-6.248;2022-08-19T09:33:45;100638.03;;;23.02;46.07
43707;BME280;61348;53.392;-6.248;2022-08-19T09:36:15;100644.59;;;21.99;47.66
43707;BME280;61348;53.392;-6.248;2022-08-19T09:38:59;100638.84;;;21.46;48.99
43707;BME280;61348;53.392;-6.248;2022-08-19T09:41:27;100643.06;;;21.61;49.47
43707;BME280;61348;53.392;-6.248;2022-08-19T09:43:56;100632.63;;;21.92;49.00
43707;BME280;61348;53.392;-6.248;2022-08-19T09:46:27;100628.91;;;22.21;48.28
43707;BME280;61348;53.392;-6.248;2022-08-19T09:48:57;100628.28;;;22.60;47.45
43707;BME280;61348;53.392;-6.248;2022-08-19T09:51:33;100619.19;;;22.26;47.37
43707;BME280;61348;53.392;-6.248;2022-08-19T09:54:04;100633.78;;;21.94;48.35
43707;BME280;61348;53.392;-6.248;2022-08-19T09:56:33;100632.38;;;21.49;48.59
43707;BME280;61348;53.392;-6.248;2022-08-19T09:59:02;100625.94;;;20.77;49.09
43707;BME280;61348;53.392;-6.248;2022-08-19T10:01:31;100624.09;;;20.09;50.49
43707;BME280;61348;53.392;-6.248;2022-08-19T10:04:00;100634.03;;;19.58;51.36
43707;BME280;61348;53.392;-6.248;2022-08-19T10:06:40;100626.16;;;19.21;52.11
43707;BME280;61348;53.392;-6.248;2022-08-19T10:09:13;100622.22;;;18.91;52.79
43707;BME280;61348;53.392;-6.248;2022-08-19T10:11:42;100619.88;;;18.68;53.59
43707;BME280;61348;53.392;-6.248;2022-08-19T10:14:19;100619.06;;;18.53;53.82
43707;BME280;61348;53.392;-6.248;2022-08-19T10:16:49;100623.06;;;18.45;54.52
43707;BME280;61348;53.392;-6.248;2022-08-19T10:19:18;100619.84;;;18.43;54.92
43707;BME280;61348;53.392;-6.248;2022-08-19T10:21:52;100622.25;;;18.38;55.04
43707;BME280;61348;53.392;-6.248;2022-08-19T10:24:21;100613.88;;;18.34;55.27
43707;BME280;61348;53.392;-6.248;2022-08-19T10:26:50;100623.88;;;18.28;55.34
43707;BME280;61348;53.392;-6.248;2022-08-19T10:29:24;100634.25;;;18.17;55.74
43707;BME280;61348;53.392;-6.248;2022-08-19T10:32:02;100633.44;;;18.06;56.18
43707;BME280;61348;53.392;-6.248;2022-08-19T10:34:36;100642.66;;;17.89;57.03
43707;BME280;61348;53.392;-6.248;2022-08-19T10:37:15;100639.38;;;17.66;57.91
43707;BME280;61348;53.392;-6.248;2022-08-19T10:39:49;100638.16;;;17.59;58.84
43707;BME280;61348;53.392;-6.248;2022-08-19T10:42:18;100641.00;;;17.63;59.04
43707;BME280;61348;53.392;-6.248;2022-08-19T10:44:46;100631.38;;;17.68;59.25
43707;BME280;61348;53.392;-6.248;2022-08-19T10:47:17;100639.78;;;17.75;59.11
43707;BME280;61348;53.392;-6.248;2022-08-19T10:49:53;100639.78;;;17.75;59.03
43707;BME280;61348;53.392;-6.248;2022-08-19T10:52:41;100657.44;;;17.79;58.54
43707;BME280;61348;53.392;-6.248;2022-08-19T10:55:20;100639.00;;;17.74;58.42
43707;BME280;61348;53.392;-6.248;2022-08-19T10:58:14;100653.44;;;17.83;58.38
43707;BME280;61348;53.392;-6.248;2022-08-19T11:00:42;100648.63;;;17.91;58.13
43707;BME280;61348;53.392;-6.248;2022-08-19T11:03:12;100643.03;;;17.98;57.82
43707;BME280;61348;53.392;-6.248;2022-08-19T11:05:38;100642.69;;;18.03;57.50
43707;BME280;61348;53.392;-6.248;2022-08-19T11:08:08;100639.88;;;18.13;57.65
43707;BME280;61348;53.392;-6.248;2022-08-19T11:10:49;100631.06;;;18.25;57.48
43707;BME280;61348;53.392;-6.248;2022-08-19T11:13:16;100635.50;;;18.62;56.55
43707;BME280;61348;53.392;-6.248;2022-08-19T11:15:42;100635.00;;;19.09;55.97
43707;BME280;61348;53.392;-6.248;2022-08-19T11:18:11;100650.19;;;19.26;54.96
43707;BME280;61348;53.392;-6.248;2022-08-19T11:20:38;100630.53;;;19.22;54.64
43707;BME280;61348;53.392;-6.248;2022-08-19T11:23:05;100639.38;;;19.21;54.45
43707;BME280;61348;53.392;-6.248;2022-08-19T11:25:32;100641.00;;;19.18;54.32
43707;BME280;61348;53.392;-6.248;2022-08-19T11:28:01;100633.38;;;19.12;54.24
43707;BME280;61348;53.392;-6.248;2022-08-19T11:30:27;100630.22;;;19.03;53.76
43707;BME280;61348;53.392;-6.248;2022-08-19T11:32:54;100632.22;;;19.06;54.14
43707;BME280;61348;53.392;-6.248;2022-08-19T11:35:22;100628.56;;;19.16;53.95
43707;BME280;61348;53.392;-6.248;2022-08-19T11:37:50;100629.75;;;19.22;54.29
43707;BME280;61348;53.392;-6.248;2022-08-19T11:40:16;100626.50;;;19.37;53.81
43707;BME280;61348;53.392;-6.248;2022-08-19T11:42:43;100620.41;;;19.53;53.99
43707;BME280;61348;53.392;-6.248;2022-08-19T11:45:24;100621.50;;;19.77;54.20
43707;BME280;61348;53.392;-6.248;2022-08-19T11:47:52;100619.00;;;19.89;53.48
43707;BME280;61348;53.392;-6.248;2022-08-19T11:50:20;100619.44;;;19.81;53.10
43707;BME280;61348;53.392;-6.248;2022-08-19T11:52:47;100624.31;;;19.73;53.19
43707;BME280;61348;53.392;-6.248;2022-08-19T11:55:16;100636.38;;;19.70;53.75
43707;BME280;61348;53.392;-6.248;2022-08-19T11:57:42;100627.56;;;19.65;53.50
43707;BME280;61348;53.392;-6.248;2022-08-19T12:00:10;100633.22;;;19.54;53.46
43707;BME280;61348;53.392;-6.248;2022-08-19T12:02:40;100622.88;;;19.37;53.62
43707;BME280;61348;53.392;-6.248;2022-08-19T12:05:08;100626.91;;;19.29;53.62
43707;BME280;61348;53.392;-6.248;2022-08-19T12:07:39;100625.28;;;19.35;53.57
43707;BME280;61348;53.392;-6.248;2022-08-19T12:10:06;100618.06;;;19.34;53.70
43707;BME280;61348;53.392;-6.248;2022-08-19T12:12:34;100620.50;;;19.32;53.61
43707;BME280;61348;53.392;-6.248;2022-08-19T12:15:01;100621.22;;;19.50;53.67
43707;BME280;61348;53.392;-6.248;2022-08-19T12:17:29;100615.06;;;19.76;53.46
43707;BME280;61348;53.392;-6.248;2022-08-19T12:19:57;100613.28;;;20.03;53.24
43707;BME280;61348;53.392;-6.248;2022-08-19T12:22:24;100618.72;;;20.28;52.68
43707;BME280;61348;53.392;-6.248;2022-08-19T12:24:51;100618.53;;;20.53;52.17
43707;BME280;61348;53.392;-6.248;2022-08-19T12:27:19;100623.47;;;20.83;51.71
43707;BME280;61348;53.392;-6.248;2022-08-19T12:30:11;100613.66;;;20.94;51.04
43707;BME280;61348;53.392;-6.248;2022-08-19T12:32:38;100614.69;;;20.74;50.53
43707;BME280;61348;53.392;-6.248;2022-08-19T12:35:06;100622.94;;;20.54;50.73
43707;BME280;61348;53.392;-6.248;2022-08-19T12:37:33;100615.47;;;20.33;50.76
43707;BME280;61348;53.392;-6.248;2022-08-19T12:40:00;100624.03;;;20.16;51.48
43707;BME280;61348;53.392;-6.248;2022-08-19T12:42:29;100628.16;;;20.04;51.53
43707;BME280;61348;53.392;-6.248;2022-08-19T12:44:56;100622.91;;;20.06;51.24
43707;BME280;61348;53.392;-6.248;2022-08-19T12:47:24;100621.59;;;20.18;51.13
43707;BME280;61348;53.392;-6.248;2022-08-19T12:49:52;100619.16;;;20.27;50.88
43707;BME280;61348;53.392;-6.248;2022-08-19T12:52:23;100620.78;;;20.21;50.95
43707;BME280;61348;53.392;-6.248;2022-08-19T12:54:52;100628.91;;;20.08;50.87
43707;BME280;61348;53.392;-6.248;2022-08-19T12:57:22;100618.56;;;19.91;50.58
43707;BME280;61348;53.392;-6.248;2022-08-19T13:00:06;100617.06;;;19.79;50.97
43707;BME280;61348;53.392;-6.248;2022-08-19T13:02:39;100615.88;;;19.73;51.14
43707;BME280;61348;53.392;-6.248;2022-08-19T13:05:12;100611.50;;;19.72;51.40